createdAt,value
2018-09-25T00:00:12.126Z,0
2018-09-25T00:00:52.567Z,0
2018-09-25T00:01:33.039Z,0
2018-09-25T00:02:13.516Z,0
2018-09-25T00:02:53.840Z,0
2018-09-25T00:03:34.280Z,0
2018-09-25T00:04:14.671Z,0
2018-09-25T00:04:55.044Z,0
2018-09-25T00:05:35.490Z,0
2018-09-25T00:06:15.932Z,0
2018-09-25T00:06:56.286Z,0
2018-09-25T00:07:36.754Z,0
2018-09-25T00:08:17.184Z,0
2018-09-25T00:08:57.558Z,0
2018-09-25T00:09:37.935Z,0
2018-09-25T00:10:18.430Z,0
2018-09-25T00:10:58.712Z,0
2018-09-25T00:11:39.158Z,0
2018-09-25T00:12:19.564Z,0
2018-09-25T00:12:59.959Z,0
2018-09-25T00:13:40.318Z,0
2018-09-25T00:14:20.778Z,0
2018-09-25T00:15:01.208Z,0
2018-09-25T00:15:41.587Z,0
2018-09-25T00:16:22.046Z,0
2018-09-25T00:17:02.437Z,0
2018-09-25T00:17:42.951Z,0
2018-09-25T00:18:23.216Z,0
2018-09-25T00:19:03.690Z,0
2018-09-25T00:19:44.022Z,0
2018-09-25T00:20:24.403Z,0
2018-09-25T00:21:04.851Z,0
2018-09-25T00:21:45.206Z,0
2018-09-25T00:22:25.631Z,0
2018-09-25T00:23:05.998Z,0
2018-09-25T00:23:46.371Z,0
2018-09-25T00:24:26.766Z,0
2018-09-25T00:25:07.167Z,0
2018-09-25T00:25:47.567Z,0
2018-09-25T00:26:27.974Z,0
2018-09-25T00:27:08.387Z,0
2018-09-25T00:27:48.756Z,0
2018-09-25T00:28:29.160Z,0
2018-09-25T00:29:09.595Z,0
2018-09-25T00:29:49.975Z,0
2018-09-25T00:30:30.410Z,0
2018-09-25T00:31:10.835Z,0
2018-09-25T00:31:51.183Z,0
2018-09-25T00:32:31.649Z,0
2018-09-25T00:33:12.077Z,0
2018-09-25T00:33:52.509Z,0
2018-09-25T00:34:32.929Z,0
2018-09-25T00:35:13.314Z,0
2018-09-25T00:35:53.732Z,0
2018-09-25T00:36:34.102Z,0
2018-09-25T00:37:14.513Z,0
2018-09-25T00:37:55.004Z,0
2018-09-25T00:38:35.277Z,0
2018-09-25T00:39:15.685Z,0
2018-09-25T00:39:56.075Z,0
2018-09-25T00:40:36.524Z,0
2018-09-25T00:41:17.061Z,0
2018-09-25T00:41:57.331Z,0
2018-09-25T00:42:37.745Z,0
2018-09-25T00:43:18.154Z,0
2018-09-25T00:43:58.675Z,0
2018-09-25T00:44:39.144Z,0
2018-09-25T00:45:19.404Z,0
2018-09-25T00:45:59.828Z,0
2018-09-25T00:46:40.253Z,0
2018-09-25T00:47:20.765Z,0
2018-09-25T00:48:01.071Z,0
2018-09-25T00:48:41.501Z,0
2018-09-25T00:49:21.872Z,0
2018-09-25T00:50:02.287Z,0
2018-09-25T00:50:42.650Z,0
2018-09-25T00:51:23.136Z,0
2018-09-25T00:52:03.532Z,0
2018-09-25T00:52:43.862Z,0
2018-09-25T00:53:24.319Z,0
2018-09-25T00:54:04.700Z,0
2018-09-25T00:54:45.043Z,0
2018-09-25T00:55:25.489Z,0
2018-09-25T00:56:05.900Z,0
2018-09-25T00:56:46.251Z,0
2018-09-25T00:57:26.612Z,0
2018-09-25T00:58:07.061Z,0
2018-09-25T00:58:47.446Z,0
2018-09-25T00:59:27.879Z,0
2018-09-25T01:00:08.392Z,0
2018-09-25T01:00:48.764Z,0
2018-09-25T01:01:29.114Z,0
2018-09-25T01:02:09.550Z,0
2018-09-25T01:02:49.943Z,0
2018-09-25T01:03:30.324Z,0
2018-09-25T01:04:10.745Z,0
2018-09-25T01:04:51.174Z,0
2018-09-25T01:05:31.510Z,0
2018-09-25T01:06:11.968Z,0
2018-09-25T01:06:52.375Z,0
2018-09-25T01:07:32.759Z,0
2018-09-25T01:08:13.173Z,0
2018-09-25T01:08:53.625Z,0
2018-09-25T01:09:34.033Z,0
2018-09-25T01:10:14.531Z,0
2018-09-25T01:10:54.992Z,0
2018-09-25T01:11:35.337Z,0
2018-09-25T01:12:15.742Z,0
2018-09-25T01:12:56.184Z,0
2018-09-25T01:13:36.591Z,0
2018-09-25T01:14:17.019Z,0
2018-09-25T01:14:57.410Z,0
2018-09-25T01:15:37.820Z,0
2018-09-25T01:16:18.282Z,0
2018-09-25T01:16:58.708Z,0
2018-09-25T01:17:39.118Z,0
2018-09-25T01:18:19.480Z,0
2018-09-25T01:18:59.909Z,0
2018-09-25T01:19:40.282Z,0
2018-09-25T01:20:20.679Z,0
2018-09-25T01:21:01.063Z,0
2018-09-25T01:21:41.475Z,0
2018-09-25T01:22:21.905Z,0
2018-09-25T01:23:02.291Z,0
2018-09-25T01:23:42.683Z,0
2018-09-25T01:24:23.040Z,0
2018-09-25T01:25:03.509Z,0
2018-09-25T01:25:43.927Z,0
2018-09-25T01:26:24.296Z,0
2018-09-25T01:27:04.754Z,0
2018-09-25T01:27:45.162Z,0
2018-09-25T01:28:25.596Z,0
2018-09-25T01:29:05.985Z,0
2018-09-25T01:29:46.463Z,0
2018-09-25T01:30:26.891Z,0
2018-09-25T01:31:07.329Z,0
2018-09-25T01:31:47.697Z,0
2018-09-25T01:32:28.105Z,0
2018-09-25T01:33:08.545Z,0
2018-09-25T01:33:48.881Z,0
2018-09-25T01:34:29.335Z,0
2018-09-25T01:35:09.771Z,0
2018-09-25T01:35:50.223Z,0
2018-09-25T01:36:30.667Z,0
2018-09-25T01:37:11.001Z,0
2018-09-25T01:37:51.468Z,0
2018-09-25T01:38:31.908Z,0
2018-09-25T01:39:12.447Z,0
2018-09-25T01:39:52.796Z,0
2018-09-25T01:40:33.193Z,0
2018-09-25T01:41:13.587Z,0
2018-09-25T01:41:54.037Z,0
2018-09-25T01:42:34.439Z,0
2018-09-25T01:43:14.857Z,0
2018-09-25T01:43:55.229Z,0
2018-09-25T01:44:35.626Z,0
2018-09-25T01:45:16.065Z,0
2018-09-25T01:45:56.471Z,0
2018-09-25T01:46:36.852Z,0
2018-09-25T01:47:17.274Z,0
2018-09-25T01:47:57.627Z,0
2018-09-25T01:48:38.057Z,0
2018-09-25T01:49:18.515Z,0
2018-09-25T01:49:58.900Z,0
2018-09-25T01:50:39.316Z,0
2018-09-25T01:51:19.734Z,0
2018-09-25T01:52:00.089Z,0
2018-09-25T01:52:40.572Z,0
2018-09-25T01:53:20.891Z,0
2018-09-25T01:54:01.324Z,0
2018-09-25T01:54:41.704Z,0
2018-09-25T01:55:22.130Z,0
2018-09-25T01:56:02.525Z,0
2018-09-25T01:56:42.931Z,0
2018-09-25T01:57:23.361Z,0
2018-09-25T01:58:03.772Z,0
2018-09-25T01:58:44.222Z,0
2018-09-25T01:59:24.609Z,0
2018-09-25T02:00:05.051Z,0
2018-09-25T02:00:45.518Z,0
2018-09-25T02:01:25.941Z,0
2018-09-25T02:02:06.309Z,0
2018-09-25T02:02:46.699Z,0
2018-09-25T02:03:27.108Z,0
2018-09-25T02:04:07.558Z,0
2018-09-25T02:04:47.977Z,0
2018-09-25T02:05:28.383Z,0
2018-09-25T02:06:08.880Z,0
2018-09-25T02:06:49.161Z,0
2018-09-25T02:07:29.550Z,0
2018-09-25T02:08:09.988Z,0
2018-09-25T02:08:50.435Z,0
2018-09-25T02:09:30.880Z,0
2018-09-25T02:10:11.260Z,0
2018-09-25T02:10:51.660Z,0
2018-09-25T02:11:32.080Z,0
2018-09-25T02:12:12.546Z,0
2018-09-25T02:12:52.973Z,0
2018-09-25T02:13:33.354Z,0
2018-09-25T02:14:13.728Z,0
2018-09-25T02:14:54.216Z,0
2018-09-25T02:15:34.611Z,0
2018-09-25T02:16:14.989Z,0
2018-09-25T02:16:55.373Z,0
2018-09-25T02:17:35.807Z,0
2018-09-25T02:18:16.203Z,0
2018-09-25T02:18:56.665Z,0
2018-09-25T02:19:37.036Z,0
2018-09-25T02:20:17.510Z,0
2018-09-25T02:20:57.857Z,0
2018-09-25T02:21:38.247Z,0
2018-09-25T02:22:18.718Z,0
2018-09-25T02:22:59.071Z,0
2018-09-25T02:23:39.564Z,0
2018-09-25T02:24:19.981Z,0
2018-09-25T02:25:00.336Z,0
2018-09-25T02:25:40.800Z,0
2018-09-25T05:08:16.524Z,0
2018-09-25T05:09:09.289Z,0
2018-09-25T05:10:02.281Z,0
2018-09-25T05:10:54.169Z,0
2018-09-25T05:11:47.193Z,0
2018-09-25T05:12:40.069Z,0
2018-09-25T05:13:32.588Z,0
2018-09-25T05:14:25.609Z,0
2018-09-25T05:15:17.729Z,0
2018-09-25T05:16:10.657Z,0
2018-09-25T05:17:16.691Z,0
2018-09-25T05:18:28.703Z,0
2018-09-25T05:19:45.096Z,0
2018-09-25T05:20:59.526Z,0
2018-09-25T05:22:11.026Z,0
2018-09-25T05:23:26.491Z,0
2018-09-25T05:24:36.567Z,0
2018-09-25T05:25:48.638Z,5
2018-09-25T05:27:01.212Z,5
2018-09-25T05:28:17.582Z,5
2018-09-25T05:29:31.047Z,5
2018-09-25T05:30:44.361Z,10
2018-09-25T05:31:54.439Z,10
2018-09-25T05:33:09.721Z,10
2018-09-25T05:34:29.109Z,15
2018-09-25T05:35:43.955Z,15
2018-09-25T05:36:59.474Z,15
2018-09-25T05:38:11.694Z,15
2018-09-25T05:39:22.288Z,15
2018-09-25T05:40:33.910Z,25
2018-09-25T05:41:46.908Z,30
2018-09-25T05:43:05.121Z,55
2018-09-25T05:44:19.975Z,75
2018-09-25T05:45:40.647Z,80
2018-09-25T05:53:07.172Z,150
2018-09-25T05:54:18.091Z,155
2018-09-25T05:55:35.206Z,170
2018-09-25T06:00:56.106Z,235
2018-09-25T06:02:05.724Z,250
2018-09-25T06:03:17.484Z,270
2018-09-25T06:04:38.121Z,290
2018-09-25T06:05:54.112Z,305
2018-09-25T06:07:06.322Z,320
2018-09-25T06:08:22.692Z,335
2018-09-25T06:09:32.086Z,345
2018-09-25T06:10:42.276Z,355
2018-09-25T06:11:52.125Z,360
2018-09-25T06:13:02.601Z,375
2018-09-25T06:14:15.197Z,405
2018-09-25T06:15:26.628Z,400
2018-09-25T06:16:43.222Z,415
2018-09-25T06:18:00.467Z,440
2018-09-25T06:19:14.337Z,460
2018-09-25T06:20:27.391Z,465
2018-09-25T06:21:37.948Z,465
2018-09-25T06:22:46.213Z,485
2018-09-25T06:24:00.252Z,515
2018-09-25T06:25:15.968Z,530
2018-09-25T08:03:42.519Z,80
2018-09-25T08:09:12.139Z,75
2018-09-25T08:23:27.592Z,75
2018-09-25T08:24:08.162Z,75
2018-09-25T08:24:48.524Z,75
2018-09-25T08:25:28.941Z,75
2018-09-25T08:26:09.531Z,75
2018-09-25T08:26:50.113Z,75
2018-09-25T08:27:30.582Z,75
2018-09-25T08:28:10.986Z,75
2018-09-25T08:28:51.912Z,75
2018-09-25T08:29:32.156Z,75
2018-09-25T08:30:27.166Z,75
2018-09-25T08:31:22.362Z,75
2018-09-25T08:43:51.318Z,70
2018-09-25T08:44:31.370Z,70
2018-09-25T08:45:11.698Z,70
2018-09-25T08:45:52.280Z,70
2018-09-25T08:46:32.713Z,70
2018-09-25T08:47:13.762Z,70
2018-09-25T08:47:53.929Z,70
2018-09-25T08:48:34.588Z,70
2018-09-25T08:49:15.477Z,70
2018-09-25T08:49:56.070Z,70
2018-09-25T08:50:37.137Z,70
2018-09-25T08:51:17.550Z,70
2018-09-25T08:51:58.873Z,70
2018-09-25T08:52:39.889Z,70
2018-09-25T08:53:19.582Z,70
2018-09-25T08:54:02.503Z,70
2018-09-25T08:54:48.800Z,70
2018-09-25T08:55:31.870Z,70
2018-09-25T08:56:11.625Z,70
2018-09-25T08:56:52.130Z,70
2018-09-25T08:57:33.876Z,70
2018-09-25T08:58:13.584Z,70
2018-09-25T08:58:54.064Z,70
2018-09-25T08:59:34.705Z,70
2018-09-25T09:00:15.262Z,70
2018-09-25T09:00:55.832Z,70
2018-09-25T09:01:36.210Z,70
2018-09-25T09:02:17.358Z,70
2018-09-25T09:02:57.860Z,70
2018-09-25T09:03:38.901Z,70
2018-09-25T09:04:18.892Z,70
2018-09-25T09:04:59.790Z,70
2018-09-25T09:05:40.256Z,70
2018-09-25T09:06:21.120Z,70
2018-09-25T09:07:03.174Z,70
2018-09-25T09:07:44.495Z,70
2018-09-25T09:08:25.485Z,70
2018-09-25T09:09:06.205Z,70
2018-09-25T09:09:47.139Z,70
2018-09-25T09:10:27.935Z,70
2018-09-25T09:11:08.734Z,70
2018-09-25T09:11:50.025Z,70
2018-09-25T09:12:30.968Z,70
2018-09-25T09:13:12.458Z,70
2018-09-25T09:13:52.962Z,70
2018-09-25T09:14:34.658Z,70
2018-09-25T09:15:14.718Z,70
2018-09-25T09:15:55.864Z,70
2018-09-25T09:16:36.471Z,70
2018-09-25T09:17:17.879Z,70
2018-09-25T09:17:57.613Z,70
2018-09-25T09:18:38.326Z,70
2018-09-25T09:19:19.250Z,75
2018-09-25T09:20:00.050Z,75
2018-09-25T09:20:40.674Z,70
2018-09-25T09:21:21.943Z,70
2018-09-25T09:22:03.088Z,70
2018-09-25T09:22:43.164Z,75
2018-09-25T09:23:24.006Z,75
2018-09-25T09:24:04.716Z,75
2018-09-25T09:24:45.429Z,75
2018-09-25T09:25:26.394Z,75
2018-09-25T09:26:06.621Z,75
2018-09-25T09:26:47.185Z,75
2018-09-25T09:27:29.118Z,75
2018-09-25T09:28:09.897Z,75
2018-09-25T09:28:50.027Z,75
2018-09-25T09:29:31.374Z,75
2018-09-25T09:30:11.449Z,75
2018-09-25T09:30:53.001Z,75
2018-09-25T09:31:33.478Z,75
2018-09-25T09:32:13.177Z,80
2018-09-25T09:32:54.414Z,80
2018-09-25T09:33:34.498Z,80
2018-09-25T09:34:15.066Z,75
2018-09-25T09:34:55.531Z,75
2018-09-25T09:35:36.008Z,75
2018-09-25T09:36:16.495Z,75
2018-09-25T09:36:56.914Z,75
2018-09-25T09:37:37.300Z,75
2018-09-25T09:38:19.656Z,75
2018-09-25T09:38:59.327Z,75
2018-09-25T09:39:40.021Z,75
2018-09-25T09:40:20.915Z,80
2018-09-25T09:41:01.490Z,75
2018-09-25T09:41:42.189Z,75
2018-09-25T09:42:22.743Z,80
2018-09-25T09:43:03.561Z,80
2018-09-25T09:43:43.787Z,80
2018-09-25T09:44:25.042Z,80
2018-09-25T09:45:05.059Z,80
2018-09-25T09:45:45.776Z,80
2018-09-25T09:46:27.378Z,80
2018-09-25T09:47:07.347Z,80
2018-09-25T09:47:47.923Z,80
2018-09-25T09:48:28.478Z,75
2018-09-25T09:49:08.865Z,80
2018-09-25T09:49:49.552Z,80
2018-09-25T09:50:30.347Z,80
2018-09-25T09:51:10.715Z,80
2018-09-25T09:51:51.155Z,75
2018-09-25T09:52:31.597Z,75
2018-09-25T09:53:12.881Z,75
2018-09-25T09:53:56.224Z,75
2018-09-25T09:54:36.691Z,80
2018-09-25T09:55:17.308Z,80
2018-09-25T09:55:58.164Z,80
2018-09-25T09:56:38.607Z,80
2018-09-25T09:57:21.381Z,80
2018-09-25T09:58:03.203Z,80
2018-09-25T09:58:43.745Z,80
2018-09-25T09:59:25.000Z,80
2018-09-25T10:00:05.660Z,80
2018-09-25T10:00:49.427Z,80
2018-09-25T10:01:30.296Z,80
2018-09-25T10:02:12.301Z,75
2018-09-25T10:02:52.734Z,75
2018-09-25T10:03:33.215Z,75
2018-09-25T10:04:14.459Z,75
2018-09-25T10:04:55.534Z,75
2018-09-25T10:05:36.013Z,80
2018-09-25T10:06:16.388Z,80
2018-09-25T10:06:56.991Z,80
2018-09-25T10:07:37.228Z,80
2018-09-25T10:08:17.721Z,80
2018-09-25T10:12:10.314Z,70
2018-09-25T10:12:51.082Z,55
2018-09-25T10:13:31.348Z,55
2018-09-25T10:14:11.764Z,70
2018-09-25T10:14:53.277Z,70
2018-09-25T10:15:34.557Z,70
2018-09-25T10:16:14.264Z,70
2018-09-25T10:16:54.682Z,70
2018-09-25T10:17:35.310Z,70
2018-09-25T10:18:15.834Z,70
2018-09-25T10:18:56.289Z,70
2018-09-25T10:19:36.574Z,70
2018-09-25T10:20:16.982Z,70
2018-09-25T10:20:57.437Z,70
2018-09-25T10:21:37.849Z,70
2018-09-25T10:22:18.302Z,70
2018-09-25T10:22:58.687Z,70
2018-09-25T10:23:39.101Z,70
2018-09-25T10:24:19.507Z,70
2018-09-25T10:25:00.034Z,70
2018-09-25T10:25:40.515Z,70
2018-09-25T10:26:20.898Z,70
2018-09-25T10:27:01.569Z,70
2018-09-25T10:27:42.005Z,70
2018-09-25T10:28:22.389Z,70
2018-09-25T10:29:02.928Z,70
2018-09-25T11:08:32.779Z,40
2018-09-25T11:15:21.944Z,35
2018-09-25T11:20:04.168Z,40
2018-09-25T11:35:12.148Z,40
2018-09-25T11:38:54.005Z,50
2018-09-25T11:40:11.171Z,35
2018-09-25T11:53:43.490Z,55
2018-09-25T11:54:34.268Z,50
2018-09-25T11:55:15.158Z,35
2018-09-25T11:56:10.804Z,35
2018-09-25T11:56:51.700Z,35
2018-09-25T11:57:32.381Z,40
2018-09-25T11:58:13.148Z,40
2018-09-25T11:58:53.625Z,40
2018-09-25T11:59:33.993Z,40
2018-09-25T12:00:14.530Z,40
2018-09-25T12:00:55.389Z,50
2018-09-25T12:01:36.472Z,60
2018-09-25T12:04:44.071Z,65
2018-09-25T12:06:06.020Z,60
2018-09-25T12:07:20.444Z,65
2018-09-25T12:08:34.062Z,65
2018-09-25T12:11:30.806Z,70
2018-09-25T12:12:48.126Z,60
2018-09-25T12:13:28.532Z,60
2018-09-25T12:14:09.019Z,60
2018-09-25T12:14:50.736Z,60
2018-09-25T12:15:31.235Z,60
2018-09-25T12:16:12.394Z,60
2018-09-25T12:16:52.118Z,65
2018-09-25T12:17:33.759Z,65
2018-09-25T12:18:14.057Z,65
2018-09-25T12:18:54.582Z,65
2018-09-25T12:19:35.090Z,65
2018-09-25T12:20:15.757Z,60
2018-09-25T12:20:56.426Z,60
2018-09-25T12:21:36.798Z,60
2018-09-25T12:22:17.279Z,65
2018-09-25T12:22:57.715Z,65
2018-09-25T12:23:38.166Z,65
2018-09-25T12:24:18.493Z,65
2018-09-25T12:24:58.953Z,60
2018-09-25T12:25:39.892Z,60
2018-09-25T12:26:19.961Z,60
2018-09-25T12:27:00.495Z,60
2018-09-25T12:27:40.860Z,55
2018-09-25T12:28:21.311Z,60
2018-09-25T12:29:01.683Z,45
2018-09-25T12:29:42.194Z,55
2018-09-25T12:30:22.968Z,60
2018-09-25T12:31:03.117Z,55
2018-09-25T12:31:43.566Z,45
2018-09-25T12:32:24.195Z,45
2018-09-25T12:33:04.767Z,50
2018-09-25T12:33:45.054Z,55
2018-09-25T12:34:28.482Z,55
2018-09-25T12:35:14.389Z,60
2018-09-25T12:35:54.853Z,60
2018-09-25T12:39:11.767Z,45
2018-09-25T12:40:20.596Z,35
2018-09-25T12:41:00.098Z,35
2018-09-25T12:41:40.474Z,35
2018-09-25T12:42:20.893Z,35
2018-09-25T12:43:01.300Z,35
2018-09-25T12:43:41.739Z,35
2018-09-25T12:44:22.342Z,35
2018-09-25T12:45:03.263Z,35
2018-09-25T12:45:43.510Z,35
2018-09-25T12:46:23.893Z,35
2018-09-25T12:47:04.370Z,35
2018-09-25T12:47:44.763Z,40
2018-09-25T12:48:25.366Z,40
2018-09-25T12:51:12.375Z,40
2018-09-25T12:51:55.481Z,45
2018-09-25T12:52:39.782Z,40
2018-09-25T12:53:19.556Z,40
2018-09-25T12:54:01.831Z,40
2018-09-25T12:54:42.431Z,40
2018-09-25T12:55:24.126Z,50
2018-09-25T12:56:03.883Z,60
2018-09-25T12:56:47.066Z,60
2018-09-25T12:57:27.414Z,60
2018-09-25T12:58:08.366Z,60
2018-09-25T12:58:48.884Z,60
2018-09-25T12:59:29.733Z,60
2018-09-25T13:00:11.341Z,60
2018-09-25T13:00:51.274Z,60
2018-09-25T13:01:33.392Z,60
2018-09-25T13:02:14.409Z,60
2018-09-25T13:02:55.447Z,60
2018-09-25T13:04:17.849Z,55
2018-09-25T13:04:59.441Z,55
2018-09-25T13:05:39.967Z,45
2018-09-25T13:06:20.470Z,45
2018-09-25T13:07:02.099Z,40
2018-09-25T13:07:42.767Z,40
2018-09-25T13:08:23.935Z,40
2018-09-25T13:09:04.872Z,40
2018-09-25T13:09:46.912Z,40
2018-09-25T13:10:28.520Z,40
2018-09-25T13:11:08.748Z,40
2018-09-25T13:11:49.568Z,40
2018-09-25T13:12:30.405Z,40
2018-09-25T13:13:11.559Z,40
2018-09-25T13:13:53.330Z,40
2018-09-25T13:14:33.692Z,45
2018-09-25T13:15:14.295Z,40
2018-09-25T13:15:54.811Z,40
2018-09-25T13:16:35.199Z,40
2018-09-25T13:17:15.905Z,40
2018-09-25T13:17:56.638Z,40
2018-09-25T13:18:40.409Z,40
2018-09-25T13:19:20.125Z,40
2018-09-25T13:20:00.830Z,40
2018-09-25T13:20:41.506Z,40
2018-09-25T13:21:22.415Z,40
2018-09-25T13:22:02.962Z,40
2018-09-25T13:22:44.235Z,40
2018-09-25T13:23:25.943Z,40
2018-09-25T13:24:07.187Z,40
2018-09-25T13:24:47.908Z,40
2018-09-25T13:25:28.715Z,55
2018-09-25T13:26:09.567Z,60
2018-09-25T13:26:51.294Z,60
2018-09-25T13:33:04.342Z,50
2018-09-25T13:33:46.127Z,45
2018-09-25T13:34:27.184Z,45
2018-09-25T13:35:07.969Z,45
2018-09-25T13:35:50.161Z,50
2018-09-25T13:37:27.858Z,60
2018-09-25T13:38:13.223Z,55
2018-09-25T13:39:00.650Z,60
2018-09-25T13:39:38.702Z,60
2018-09-25T13:49:46.114Z,50
2018-09-25T13:50:27.402Z,50
2018-09-25T13:51:07.507Z,50
2018-09-25T13:51:48.635Z,55
2018-09-25T13:52:29.033Z,50
2018-09-25T13:53:10.601Z,50
2018-09-25T13:53:50.474Z,50
2018-09-25T13:54:30.729Z,50
2018-09-25T13:55:13.365Z,50
2018-09-25T13:55:55.580Z,50
2018-09-25T13:56:35.686Z,50
2018-09-25T13:57:16.718Z,50
2018-09-25T13:57:58.293Z,45
2018-09-25T13:58:37.678Z,45
2018-09-25T13:59:18.263Z,45
2018-09-25T13:59:59.699Z,45
2018-09-25T14:00:40.299Z,45
2018-09-25T14:01:21.310Z,45
2018-09-25T14:02:01.630Z,50
2018-09-25T14:02:43.118Z,45
2018-09-25T14:03:25.507Z,45
2018-09-25T14:04:05.934Z,45
2018-09-25T14:04:46.565Z,50
2018-09-25T14:05:27.369Z,50
2018-09-25T14:06:11.791Z,50
2018-09-25T14:06:52.521Z,50
2018-09-25T14:07:33.400Z,50
2018-09-25T14:08:14.166Z,50
2018-09-25T14:08:55.048Z,50
2018-09-25T14:09:35.784Z,45
2018-09-25T14:10:16.620Z,50
2018-09-25T14:10:58.529Z,50
2018-09-25T14:11:40.268Z,50
2018-09-25T14:12:20.985Z,45
2018-09-25T14:13:02.650Z,45
2018-09-25T14:13:43.130Z,45
2018-09-25T14:14:23.443Z,45
2018-09-25T14:15:04.047Z,45
2018-09-25T14:15:45.324Z,45
2018-09-25T14:16:25.957Z,45
2018-09-25T14:17:06.376Z,45
2018-09-25T14:17:47.172Z,45
2018-09-25T14:18:27.627Z,45
2018-09-25T14:19:08.131Z,45
2018-09-25T14:19:49.107Z,45
2018-09-25T14:20:29.489Z,45
2018-09-25T14:21:09.934Z,45
2018-09-25T14:21:50.325Z,45
2018-09-25T14:22:31.113Z,45
2018-09-25T14:23:11.589Z,45
2018-09-25T14:23:52.042Z,45
2018-09-25T14:24:32.531Z,45
2018-09-25T14:25:13.108Z,45
2018-09-25T14:25:53.611Z,45
2018-09-25T14:26:34.089Z,45
2018-09-25T14:27:14.512Z,45
2018-09-25T14:27:55.721Z,45
2018-09-25T14:28:36.148Z,45
2018-09-25T14:29:16.699Z,45
2018-09-25T14:29:57.187Z,45
2018-09-25T14:30:37.676Z,40
2018-09-25T14:31:18.113Z,45
2018-09-25T14:31:58.573Z,45
2018-09-25T14:32:38.993Z,45
2018-09-25T14:33:19.593Z,45
2018-09-25T14:34:00.677Z,45
2018-09-25T14:34:40.730Z,45
2018-09-25T14:35:22.179Z,45
2018-09-25T14:36:01.722Z,45
2018-09-25T14:36:42.246Z,45
2018-09-25T14:37:22.708Z,45
2018-09-25T14:38:03.141Z,45
2018-09-25T14:38:44.646Z,45
2018-09-25T14:39:24.911Z,45
2018-09-25T14:40:05.291Z,45
2018-09-25T14:40:45.819Z,45
2018-09-25T14:41:26.162Z,40
2018-09-25T14:42:06.647Z,45
2018-09-25T14:42:47.048Z,45
2018-09-25T14:43:27.451Z,45
2018-09-25T14:44:07.847Z,45
2018-09-25T14:44:48.247Z,40
2018-09-25T14:45:29.926Z,45
2018-09-25T14:46:10.344Z,45
2018-09-25T14:46:50.911Z,45
2018-09-25T14:47:31.324Z,45
2018-09-25T14:48:11.813Z,40
2018-09-25T14:48:52.322Z,40
2018-09-25T14:49:32.789Z,40
2018-09-25T14:50:13.193Z,40
2018-09-25T14:50:53.988Z,40
2018-09-25T14:51:34.121Z,40
2018-09-25T14:52:14.521Z,40
2018-09-25T14:52:54.979Z,40
2018-09-25T14:53:35.453Z,40
2018-09-25T14:54:15.874Z,40
2018-09-25T14:54:56.287Z,35
2018-09-25T14:55:36.737Z,35
2018-09-25T14:56:18.328Z,35
2018-09-25T14:56:58.857Z,35
2018-09-25T14:57:39.520Z,35
2018-09-25T14:58:20.505Z,30
2018-09-25T15:07:35.892Z,60
2018-09-25T15:08:16.425Z,100
2018-09-25T15:08:56.978Z,140
2018-09-25T15:09:37.433Z,125
2018-09-25T15:10:17.961Z,105
2018-09-25T15:10:58.433Z,95
2018-09-25T15:11:39.904Z,65
2018-09-25T15:12:20.630Z,50
2018-09-25T15:13:01.202Z,40
2018-09-25T15:13:41.751Z,40
2018-09-25T15:14:23.200Z,40
2018-09-25T15:15:03.582Z,40
2018-09-25T15:15:44.455Z,40
2018-09-25T15:16:24.993Z,40
2018-09-25T15:17:05.822Z,35
2018-09-25T15:17:46.530Z,35
2018-09-25T15:18:27.071Z,35
2018-09-25T15:19:08.195Z,35
2018-09-25T15:19:48.419Z,35
2018-09-25T15:20:28.966Z,35
2018-09-25T15:21:09.449Z,35
2018-09-25T15:21:50.510Z,35
2018-09-25T15:22:30.894Z,35
2018-09-25T15:23:11.307Z,35
2018-09-25T15:23:52.128Z,35
2018-09-25T15:24:33.193Z,35
2018-09-25T15:25:13.270Z,35
2018-09-25T15:25:54.908Z,35
2018-09-25T15:31:52.948Z,30
2018-09-25T15:32:34.429Z,30
2018-09-25T15:33:18.196Z,25
2018-09-25T15:33:59.305Z,25
2018-09-25T15:34:42.179Z,25
2018-09-25T15:35:22.769Z,25
2018-09-25T15:36:04.140Z,25
2018-09-25T15:36:43.690Z,25
2018-09-25T15:37:24.174Z,25
2018-09-25T15:38:04.733Z,25
2018-09-25T15:38:47.973Z,25
2018-09-25T15:39:29.399Z,25
2018-09-25T15:40:12.688Z,25
2018-09-25T15:40:55.735Z,25
2018-09-25T15:41:38.684Z,25
2018-09-25T15:42:18.418Z,25
2018-09-25T15:43:01.208Z,25
2018-09-25T15:43:40.740Z,25
2018-09-25T15:44:22.192Z,25
2018-09-25T15:45:03.705Z,25
2018-09-25T15:45:45.197Z,25
2018-09-25T15:46:24.755Z,25
2018-09-25T15:47:05.693Z,25
2018-09-25T15:47:47.200Z,25
2018-09-25T15:48:29.224Z,25
2018-09-25T15:49:10.494Z,25
2018-09-25T15:49:51.801Z,25
2018-09-25T15:50:32.305Z,25
2018-09-25T15:51:13.022Z,25
2018-09-25T15:51:54.678Z,25
2018-09-25T15:52:35.665Z,20
2018-09-25T15:53:17.239Z,20
2018-09-25T15:53:58.672Z,20
2018-09-25T15:54:38.979Z,20
2018-09-25T15:55:20.174Z,20
2018-09-25T15:56:00.233Z,20
2018-09-25T15:56:40.920Z,20
2018-09-25T15:57:23.299Z,20
2018-09-25T15:58:04.803Z,20
2018-09-25T15:58:45.551Z,20
2018-09-25T15:59:25.994Z,20
2018-09-25T16:00:06.576Z,20
2018-09-25T16:00:47.032Z,20
2018-09-25T16:01:27.663Z,20
2018-09-25T16:02:08.171Z,20
2018-09-25T16:02:48.666Z,20
2018-09-25T16:03:29.231Z,20
2018-09-25T16:04:09.674Z,20
2018-09-25T16:04:50.392Z,20
2018-09-25T16:05:31.872Z,20
2018-09-25T16:06:12.514Z,20
2018-09-25T16:06:53.791Z,20
2018-09-25T16:07:34.212Z,20
2018-09-25T16:08:15.233Z,20
2018-09-25T16:08:55.822Z,20
2018-09-25T16:09:37.656Z,20
2018-09-25T16:10:17.573Z,20
2018-09-25T16:10:58.042Z,20
2018-09-25T16:11:38.550Z,20
2018-09-25T16:12:19.056Z,20
2018-09-25T16:12:59.484Z,20
2018-09-25T16:13:39.961Z,25
2018-09-25T16:14:20.435Z,25
2018-09-25T16:15:00.878Z,25
2018-09-25T16:15:41.344Z,25
2018-09-25T16:16:21.889Z,25
2018-09-25T16:17:02.372Z,25
2018-09-25T16:17:42.774Z,25
2018-09-25T16:18:23.188Z,25
2018-09-25T16:19:04.363Z,25
2018-09-25T16:19:44.853Z,25
2018-09-25T16:20:25.290Z,25
2018-09-25T16:21:05.660Z,25
2018-09-25T16:21:46.143Z,25
2018-09-25T16:22:26.543Z,20
2018-09-25T16:23:06.984Z,20
2018-09-25T16:23:47.392Z,20
2018-09-25T16:24:27.842Z,20
2018-09-25T16:25:08.381Z,20
2018-09-25T16:25:48.950Z,20
2018-09-25T16:26:29.293Z,20
2018-09-25T16:27:09.765Z,20
2018-09-25T16:27:50.251Z,20
2018-09-25T16:28:30.778Z,20
2018-09-25T16:29:11.121Z,20
2018-09-25T16:29:51.673Z,20
2018-09-25T16:30:32.169Z,20
2018-09-25T17:15:54.477Z,0
2018-09-25T17:16:40.997Z,0
2018-09-25T17:17:21.461Z,0
2018-09-25T17:18:02.775Z,0
2018-09-25T17:18:44.374Z,0
2018-09-25T17:19:24.795Z,0
2018-09-25T17:20:05.138Z,0
2018-09-25T17:20:46.545Z,0
2018-09-25T17:21:26.666Z,0
2018-09-25T17:22:08.119Z,0
2018-09-25T17:22:48.906Z,0
2018-09-25T17:23:29.337Z,0
2018-09-25T17:24:09.734Z,0
2018-09-25T17:24:50.109Z,0
2018-09-25T17:25:30.521Z,0
2018-09-25T17:26:10.959Z,0
2018-09-25T17:26:51.315Z,0
2018-09-25T17:27:31.724Z,0
2018-09-25T17:28:12.190Z,0
2018-09-25T17:28:52.632Z,0
2018-09-25T17:29:33.055Z,0
2018-09-25T17:30:13.437Z,0
2018-09-25T17:30:53.861Z,0
2018-09-25T17:31:34.267Z,0
2018-09-25T17:32:18.588Z,0
2018-09-25T17:33:06.500Z,0
2018-09-25T17:33:50.288Z,0
2018-09-25T17:34:31.556Z,0
2018-09-25T17:35:12.004Z,0
2018-09-25T17:35:53.831Z,0
2018-09-25T17:36:34.204Z,0
2018-09-25T17:37:15.494Z,0
2018-09-25T17:37:58.119Z,0
2018-09-25T17:38:39.531Z,0
2018-09-25T17:39:23.279Z,0
2018-09-25T17:40:04.020Z,0
2018-09-25T17:40:44.749Z,0
2018-09-25T17:41:25.167Z,0
2018-09-25T17:42:07.852Z,0
2018-09-25T17:43:02.249Z,0
2018-09-25T17:43:43.373Z,0
2018-09-25T17:44:23.814Z,0
2018-09-25T17:45:04.233Z,0
2018-09-25T17:45:44.956Z,0
2018-09-25T17:46:25.298Z,0
2018-09-25T17:47:05.712Z,0
2018-09-25T17:47:46.117Z,0
2018-09-25T17:48:26.734Z,0
2018-09-25T17:51:22.117Z,0
2018-09-25T17:52:17.660Z,0
2018-09-25T17:53:01.646Z,0
2018-09-25T17:53:42.185Z,0
2018-09-25T17:54:22.541Z,0
2018-09-25T17:55:02.987Z,0
2018-09-25T17:55:43.358Z,0
2018-09-25T17:56:23.908Z,0
2018-09-25T17:57:04.461Z,0
2018-09-25T17:57:44.845Z,0
2018-09-25T17:58:25.331Z,0
2018-09-25T17:59:07.013Z,0
2018-09-25T17:59:47.432Z,0
2018-09-25T18:00:27.909Z,0
2018-09-25T18:01:08.356Z,0
2018-09-25T18:01:48.742Z,0
2018-09-25T18:02:29.176Z,0
2018-09-25T18:03:09.597Z,0
2018-09-25T18:03:50.005Z,0
2018-09-25T18:04:35.125Z,0
2018-09-25T18:05:21.396Z,0
2018-09-25T18:06:05.209Z,0
2018-09-25T18:06:45.832Z,0
2018-09-25T18:07:27.031Z,0
2018-09-25T18:08:07.319Z,0
2018-09-25T18:08:48.057Z,0
2018-09-25T18:09:29.392Z,0
2018-09-25T18:10:09.892Z,0